Time;durP1;ratioP1;P1;durP2;ratioP2;P2;SDS_P1;SDS_P2;PMS_P1;PMS_P2;Temp;Humidity;BMP_temperature;BMP_pressure;BME280_temperature;BME280_humidity;BME280_pressure;Samples;Min_cycle;Max_cycle;Signal;HPM_P1;HPM_P2
2020/07/16 00:05:49;;;;;;;2.27;2.09;;;;;;;21.46;62.52;100427.95;;;;-59
2020/07/16 00:12:49;;;;;;;2.15;1.92;;;;;;;21.46;62.55;100426.55;;;;-60
2020/07/16 00:15:49;;;;;;;2.23;2.03;;;;;;;21.45;62.55;100432.34;;;;-59
2020/07/16 00:19:49;;;;;;;2.10;2.00;;;;;;;21.44;62.52;100422.66;;;;-60
2020/07/16 00:23:49;;;;;;;2.47;2.01;;;;;;;21.44;62.57;100413.86;;;;-59
2020/07/16 00:26:49;;;;;;;2.41;2.08;;;;;;;21.43;62.51;100406.25;;;;-59
2020/07/16 00:30:49;;;;;;;2.17;1.99;;;;;;;21.43;62.57;100415.88;;;;-59
2020/07/16 00:35:49;;;;;;;2.23;1.97;;;;;;;21.43;62.56;100411.56;;;;-59
2020/07/16 00:39:49;;;;;;;2.66;1.99;;;;;;;21.43;62.52;100405.37;;;;-60
2020/07/16 00:45:49;;;;;;;1.99;1.89;;;;;;;21.41;62.55;100406.23;;;;-59
2020/07/16 00:50:49;;;;;;;2.11;1.91;;;;;;;21.41;62.51;100399.06;;;;-59
2020/07/16 00:55:49;;;;;;;2.05;1.94;;;;;;;21.40;62.53;100404.53;;;;-59
2020/07/16 00:58:49;;;;;;;2.03;1.85;;;;;;;21.39;62.55;100404.55;;;;-59
2020/07/16 01:01:49;;;;;;;2.13;1.96;;;;;;;21.39;62.52;100407.80;;;;-60
2020/07/16 01:04:49;;;;;;;2.10;1.90;;;;;;;21.40;62.54;100409.35;;;;-59
2020/07/16 01:07:49;;;;;;;2.27;2.07;;;;;;;21.39;62.57;100405.59;;;;-60
2020/07/16 01:10:49;;;;;;;1.93;1.83;;;;;;;21.38;62.53;100403.97;;;;-59
2020/07/16 01:13:49;;;;;;;2.02;1.89;;;;;;;21.39;62.54;100403.55;;;;-60
2020/07/16 01:16:49;;;;;;;1.96;1.83;;;;;;;21.39;62.49;100401.67;;;;-60
2020/07/16 01:19:49;;;;;;;2.01;1.91;;;;;;;21.38;62.50;100404.05;;;;-59
2020/07/16 01:22:49;;;;;;;2.03;1.90;;;;;;;21.38;62.53;100403.31;;;;-59
2020/07/16 01:25:49;;;;;;;2.05;1.95;;;;;;;21.38;62.50;100397.61;;;;-59
2020/07/16 01:28:49;;;;;;;2.11;1.91;;;;;;;21.38;62.51;100392.07;;;;-60
2020/07/16 01:31:49;;;;;;;2.11;1.89;;;;;;;21.37;62.52;100396.63;;;;-60
2020/07/16 01:34:49;;;;;;;2.02;1.88;;;;;;;21.37;62.50;100407.38;;;;-60
2020/07/16 01:37:48;;;;;;;2.00;1.90;;;;;;;21.37;62.52;100396.95;;;;-60
2020/07/16 01:40:49;;;;;;;2.15;1.93;;;;;;;21.36;62.52;100408.94;;;;-60
2020/07/16 01:43:49;;;;;;;2.25;1.80;;;;;;;21.36;62.48;100414.98;;;;-59
2020/07/16 01:46:49;;;;;;;2.07;1.97;;;;;;;21.36;62.51;100404.31;;;;-60
2020/07/16 01:49:49;;;;;;;1.89;1.79;;;;;;;21.36;62.51;100407.39;;;;-60
2020/07/16 01:52:49;;;;;;;2.51;2.00;;;;;;;21.35;62.51;100412.27;;;;-59
2020/07/16 01:55:49;;;;;;;2.10;1.90;;;;;;;21.36;62.52;100415.30;;;;-60
2020/07/16 01:58:49;;;;;;;2.08;1.93;;;;;;;21.35;62.53;100415.22;;;;-60
2020/07/16 02:01:49;;;;;;;1.81;1.71;;;;;;;21.35;62.51;100424.42;;;;-60
2020/07/16 02:04:49;;;;;;;1.96;1.85;;;;;;;21.35;62.52;100428.50;;;;-59
2020/07/16 02:07:49;;;;;;;1.90;1.80;;;;;;;21.35;62.50;100424.51;;;;-59
2020/07/16 02:10:49;;;;;;;1.90;1.80;;;;;;;21.34;62.50;100421.83;;;;-59
2020/07/16 02:13:49;;;;;;;2.01;1.91;;;;;;;21.34;62.44;100416.37;;;;-59
2020/07/16 02:16:49;;;;;;;2.00;1.80;;;;;;;21.34;62.46;100420.52;;;;-60
2020/07/16 02:19:49;;;;;;;2.80;1.92;;;;;;;21.34;62.49;100418.16;;;;-59
2020/07/16 02:22:49;;;;;;;1.88;1.78;;;;;;;21.33;62.43;100411.41;;;;-59
2020/07/16 02:25:49;;;;;;;1.93;1.83;;;;;;;21.33;62.44;100414.72;;;;-60
2020/07/16 02:28:49;;;;;;;2.22;2.02;;;;;;;21.32;62.50;100412.30;;;;-60
2020/07/16 02:31:49;;;;;;;2.00;1.89;;;;;;;21.33;62.48;100417.50;;;;-59
2020/07/16 02:34:49;;;;;;;1.97;1.87;;;;;;;21.32;62.51;100420.36;;;;-59
2020/07/16 02:37:49;;;;;;;1.90;1.80;;;;;;;21.32;62.48;100424.77;;;;-59
2020/07/16 02:40:49;;;;;;;1.90;1.80;;;;;;;21.32;62.48;100427.05;;;;-59
2020/07/16 02:43:49;;;;;;;1.90;1.80;;;;;;;21.31;62.49;100421.36;;;;-60
2020/07/16 02:46:49;;;;;;;1.91;1.80;;;;;;;21.31;62.49;100424.67;;;;-59
2020/07/16 02:49:49;;;;;;;1.90;1.75;;;;;;;21.32;62.48;100425.84;;;;-59
2020/07/16 02:52:49;;;;;;;1.91;1.81;;;;;;;21.31;62.49;100428.26;;;;-59
2020/07/16 02:55:49;;;;;;;1.96;1.86;;;;;;;21.30;62.47;100429.73;;;;-59
2020/07/16 02:58:49;;;;;;;2.23;1.70;;;;;;;21.31;62.46;100430.95;;;;-59
2020/07/16 03:01:49;;;;;;;1.80;1.70;;;;;;;21.30;62.48;100426.80;;;;-60
2020/07/16 03:04:49;;;;;;;1.99;1.70;;;;;;;21.30;62.48;100429.33;;;;-60
2020/07/16 03:07:49;;;;;;;1.85;1.75;;;;;;;21.30;62.45;100433.73;;;;-59
2020/07/16 03:10:49;;;;;;;1.92;1.82;;;;;;;21.30;62.47;100440.17;;;;-60
2020/07/16 03:13:49;;;;;;;1.95;1.80;;;;;;;21.30;62.48;100441.23;;;;-59
2020/07/16 03:16:49;;;;;;;1.93;1.83;;;;;;;21.29;62.46;100443.45;;;;-59
2020/07/16 03:19:49;;;;;;;1.79;1.69;;;;;;;21.29;62.45;100443.53;;;;-59
2020/07/16 03:22:49;;;;;;;1.80;1.70;;;;;;;21.29;62.47;100451.68;;;;-60
2020/07/16 03:25:49;;;;;;;2.00;1.83;;;;;;;21.29;62.46;100454.51;;;;-59
2020/07/16 03:28:49;;;;;;;1.75;1.65;;;;;;;21.28;62.47;100455.17;;;;-59
2020/07/16 03:31:49;;;;;;;1.71;1.61;;;;;;;21.28;62.44;100453.45;;;;-59
2020/07/16 03:34:49;;;;;;;1.81;1.70;;;;;;;21.28;62.46;100456.56;;;;-59
2020/07/16 03:37:49;;;;;;;2.36;1.70;;;;;;;21.28;62.48;100458.03;;;;-59
2020/07/16 03:40:49;;;;;;;1.85;1.75;;;;;;;21.28;62.44;100456.72;;;;-59
2020/07/16 03:43:49;;;;;;;1.93;1.80;;;;;;;21.28;62.48;100458.36;;;;-60
2020/07/16 03:46:49;;;;;;;1.92;1.82;;;;;;;21.27;62.43;100458.05;;;;-59
2020/07/16 03:49:49;;;;;;;1.78;1.68;;;;;;;21.27;62.47;100462.12;;;;-59
2020/07/16 03:52:49;;;;;;;1.76;1.66;;;;;;;21.27;62.43;100459.16;;;;-59
2020/07/16 03:55:49;;;;;;;1.80;1.70;;;;;;;21.26;62.45;100458.27;;;;-60
2020/07/16 03:58:49;;;;;;;2.18;1.70;;;;;;;21.26;62.48;100458.03;;;;-59
2020/07/16 04:01:49;;;;;;;1.80;1.70;;;;;;;21.26;62.46;100451.83;;;;-59
2020/07/16 04:04:49;;;;;;;1.89;1.79;;;;;;;21.25;62.43;100448.17;;;;-59
2020/07/16 04:07:49;;;;;;;2.17;1.73;;;;;;;21.25;62.50;100445.06;;;;-59
2020/07/16 04:10:49;;;;;;;1.62;1.52;;;;;;;21.25;62.45;100444.02;;;;-59
2020/07/16 04:13:49;;;;;;;1.79;1.69;;;;;;;21.25;62.47;100444.24;;;;-60
2020/07/16 04:16:49;;;;;;;2.17;1.72;;;;;;;21.24;62.47;100444.98;;;;-59
2020/07/16 04:19:49;;;;;;;1.80;1.70;;;;;;;21.24;62.44;100438.14;;;;-59
2020/07/16 04:22:49;;;;;;;1.76;1.66;;;;;;;21.24;62.48;100433.91;;;;-59
2020/07/16 04:25:49;;;;;;;1.90;1.79;;;;;;;21.23;62.44;100434.16;;;;-60
2020/07/16 04:28:49;;;;;;;1.76;1.66;;;;;;;21.24;62.45;100436.69;;;;-60
2020/07/16 04:31:49;;;;;;;1.95;1.83;;;;;;;21.23;62.47;100437.50;;;;-59
2020/07/16 04:34:49;;;;;;;1.89;1.79;;;;;;;21.23;62.47;100434.81;;;;-59
2020/07/16 04:37:49;;;;;;;1.77;1.67;;;;;;;21.23;62.46;100438.40;;;;-59
2020/07/16 04:40:49;;;;;;;1.80;1.70;;;;;;;21.23;62.48;100445.22;;;;-60
2020/07/16 04:43:49;;;;;;;1.97;1.64;;;;;;;21.23;62.47;100444.16;;;;-59
2020/07/16 04:46:49;;;;;;;1.79;1.69;;;;;;;21.23;62.48;100447.45;;;;-59
2020/07/16 04:49:49;;;;;;;1.81;1.71;;;;;;;21.23;62.49;100447.53;;;;-59
2020/07/16 04:52:49;;;;;;;1.73;1.63;;;;;;;21.23;62.47;100450.78;;;;-59
2020/07/16 04:55:49;;;;;;;1.81;1.71;;;;;;;21.23;62.45;100446.80;;;;-59
2020/07/16 04:58:49;;;;;;;1.77;1.67;;;;;;;21.23;62.44;100451.91;;;;-59
2020/07/16 05:01:49;;;;;;;1.99;1.79;;;;;;;21.23;62.52;100452.83;;;;-59
2020/07/16 05:04:49;;;;;;;1.87;1.71;;;;;;;21.23;62.47;100454.11;;;;-59
2020/07/16 05:07:49;;;;;;;1.82;1.72;;;;;;;21.23;62.53;100458.75;;;;-59
2020/07/16 05:10:49;;;;;;;1.80;1.70;;;;;;;21.22;62.50;100458.11;;;;-60
2020/07/16 05:13:49;;;;;;;1.89;1.79;;;;;;;21.22;62.53;100462.92;;;;-59
2020/07/16 05:16:49;;;;;;;1.90;1.80;;;;;;;21.21;62.56;100457.63;;;;-59
2020/07/16 05:19:49;;;;;;;1.81;1.71;;;;;;;21.22;62.48;100461.70;;;;-59
2020/07/16 05:22:49;;;;;;;2.04;1.70;;;;;;;21.22;62.54;100459.25;;;;-60
2020/07/16 05:25:49;;;;;;;1.84;1.74;;;;;;;21.22;62.50;100458.69;;;;-59
2020/07/16 05:28:49;;;;;;;1.80;1.70;;;;;;;21.22;62.56;100460.31;;;;-59
2020/07/16 05:31:49;;;;;;;1.84;1.74;;;;;;;21.22;62.55;100463.25;;;;-59
2020/07/16 05:34:49;;;;;;;1.84;1.71;;;;;;;21.22;62.52;100465.13;;;;-60
2020/07/16 05:37:49;;;;;;;1.80;1.70;;;;;;;21.22;62.60;100466.75;;;;-60
2020/07/16 05:40:49;;;;;;;2.09;1.89;;;;;;;21.21;62.62;100468.88;;;;-59
2020/07/16 05:43:49;;;;;;;2.57;1.82;;;;;;;21.22;62.63;100465.45;;;;-59
2020/07/16 05:46:49;;;;;;;2.05;1.80;;;;;;;21.21;62.61;100461.80;;;;-60
2020/07/16 05:49:49;;;;;;;2.09;1.80;;;;;;;21.21;62.59;100462.69;;;;-60
2020/07/16 05:52:49;;;;;;;1.92;1.81;;;;;;;21.20;62.63;100463.56;;;;-59
2020/07/16 05:55:49;;;;;;;1.90;1.80;;;;;;;21.20;62.66;100467.97;;;;-60
2020/07/16 05:58:49;;;;;;;2.26;1.73;;;;;;;21.20;62.70;100470.17;;;;-60
2020/07/16 06:01:49;;;;;;;2.11;1.85;;;;;;;21.21;62.69;100470.77;;;;-59
2020/07/16 06:04:49;;;;;;;1.87;1.77;;;;;;;21.20;62.69;100473.34;;;;-59
2020/07/16 06:07:49;;;;;;;1.95;1.80;;;;;;;21.21;62.64;100479.08;;;;-60
2020/07/16 06:10:49;;;;;;;1.98;1.85;;;;;;;21.20;62.68;100475.80;;;;-58
2020/07/16 06:13:49;;;;;;;1.81;1.71;;;;;;;21.20;62.68;100472.38;;;;-60
2020/07/16 06:16:49;;;;;;;1.97;1.81;;;;;;;21.19;62.66;100472.38;;;;-59
2020/07/16 06:19:49;;;;;;;1.87;1.77;;;;;;;21.20;62.73;100474.08;;;;-60
2020/07/16 06:22:49;;;;;;;2.37;1.83;;;;;;;21.19;62.66;100474.98;;;;-60
2020/07/16 06:25:49;;;;;;;1.99;1.87;;;;;;;21.20;62.69;100474.91;;;;-60
2020/07/16 06:28:49;;;;;;;2.23;2.03;;;;;;;21.20;62.68;100477.02;;;;-60
2020/07/16 06:31:49;;;;;;;2.17;1.90;;;;;;;21.20;62.69;100474.66;;;;-60
2020/07/16 06:34:53;;;;;;;2.29;2.09;;;;;;;21.19;62.73;100477.77;;;;-60
2020/07/16 06:37:49;;;;;;;1.98;1.88;;;;;;;21.20;62.72;100477.75;;;;-59
2020/07/16 06:40:49;;;;;;;2.28;2.08;;;;;;;21.20;62.70;100479.14;;;;-60
2020/07/16 06:44:49;;;;;;;2.10;1.92;;;;;;;21.19;62.70;100480.62;;;;-59
2020/07/16 06:48:49;;;;;;;2.00;1.90;;;;;;;21.20;62.70;100476.45;;;;-60
2020/07/16 06:53:49;;;;;;;2.01;1.91;;;;;;;21.20;62.70;100477.52;;;;-59
2020/07/16 06:59:48;;;;;;;2.73;2.00;;;;;;;21.20;62.70;100478.33;;;;-59
2020/07/16 07:04:48;;;;;;;4.01;1.95;;;;;;;21.19;62.74;100480.38;;;;-59
2020/07/16 07:08:48;;;;;;;8.13;5.35;;;;;;;21.14;67.93;100484.60;;;;-59
2020/07/16 07:13:49;;;;;;;7.19;6.48;;;;;;;20.99;69.80;100489.32;;;;-54
2020/07/16 07:18:48;;;;;;;8.82;6.11;;;;;;;20.92;70.10;100487.39;;;;-58
2020/07/16 07:22:48;;;;;;;14.57;5.68;;;;;;;20.97;69.62;100488.92;;;;-56
2020/07/16 07:28:48;;;;;;;8.02;4.91;;;;;;;21.08;68.67;100496.02;;;;-54
2020/07/16 07:32:49;;;;;;;10.47;4.65;;;;;;;21.12;68.40;100488.11;;;;-58
2020/07/16 07:36:48;;;;;;;7.94;4.19;;;;;;;21.16;67.83;100485.73;;;;-58
2020/07/16 07:40:49;;;;;;;8.70;4.07;;;;;;;21.19;67.66;100490.32;;;;-55
2020/07/16 07:45:49;;;;;;;6.91;3.95;;;;;;;21.22;66.85;100494.45;;;;-55
2020/07/16 07:49:49;;;;;;;6.05;3.52;;;;;;;21.25;66.83;100500.23;;;;-55
2020/07/16 07:54:49;;;;;;;7.43;3.51;;;;;;;21.25;66.46;100503.60;;;;-55
2020/07/16 07:57:49;;;;;;;6.98;3.40;;;;;;;21.25;66.30;100503.03;;;;-55
2020/07/16 08:00:49;;;;;;;6.30;3.58;;;;;;;21.24;66.40;100504.89;;;;-55
2020/07/16 08:05:49;;;;;;;6.21;3.49;;;;;;;21.26;66.08;100510.84;;;;-55
2020/07/16 08:11:49;;;;;;;9.51;3.25;;;;;;;21.26;65.82;100514.27;;;;-55
2020/07/16 08:15:49;;;;;;;8.38;3.42;;;;;;;21.27;65.56;100514.50;;;;-55
2020/07/16 08:19:49;;;;;;;5.76;3.19;;;;;;;21.27;65.41;100517.22;;;;-55
2020/07/16 08:24:49;;;;;;;6.44;3.20;;;;;;;21.26;65.36;100520.70;;;;-55
2020/07/16 08:34:15;;;;;;;5.09;2.95;;;;;;;21.27;65.02;100529.20;;;;-55
2020/07/16 08:39:15;;;;;;;5.89;3.03;;;;;;;21.30;65.04;100531.23;;;;-66
2020/07/16 08:44:14;;;;;;;4.19;3.07;;;;;;;21.30;64.94;100535.86;;;;-62
2020/07/16 08:49:15;;;;;;;4.95;3.06;;;;;;;21.32;65.17;100531.31;;;;-63
2020/07/16 08:55:15;;;;;;;5.97;3.07;;;;;;;21.32;64.97;100533.18;;;;-63
2020/07/16 09:04:41;;;;;;;5.92;3.08;;;;;;;21.34;65.14;100532.69;;;;-59
2020/07/16 09:08:41;;;;;;;6.71;2.97;;;;;;;21.37;65.37;100533.03;;;;-55
2020/07/16 09:13:41;;;;;;;5.88;2.90;;;;;;;21.38;65.09;100530.34;;;;-54
2020/07/16 09:19:41;;;;;;;10.25;3.25;;;;;;;21.37;65.03;100532.59;;;;-55
2020/07/16 09:22:41;;;;;;;5.87;2.91;;;;;;;21.38;65.07;100533.67;;;;-55
2020/07/16 09:27:41;;;;;;;7.90;3.25;;;;;;;21.41;65.00;100535.37;;;;-60
2020/07/16 09:30:41;;;;;;;3.99;2.90;;;;;;;21.41;65.05;100538.87;;;;-57
2020/07/16 09:33:41;;;;;;;7.13;2.88;;;;;;;21.42;65.11;100541.19;;;;-57
2020/07/16 09:36:41;;;;;;;6.90;2.95;;;;;;;21.44;65.12;100540.39;;;;-56
2020/07/16 09:39:41;;;;;;;7.49;2.61;;;;;;;21.46;65.02;100545.26;;;;-59
2020/07/16 09:42:41;;;;;;;8.00;2.95;;;;;;;21.47;64.91;100544.94;;;;-57
2020/07/16 09:45:41;;;;;;;5.88;2.57;;;;;;;21.47;65.02;100545.10;;;;-56
2020/07/16 09:48:41;;;;;;;4.73;2.90;;;;;;;21.47;64.95;100546.89;;;;-59
2020/07/16 09:51:41;;;;;;;5.65;2.71;;;;;;;21.48;65.04;100545.86;;;;-57
2020/07/16 09:54:41;;;;;;;5.01;2.75;;;;;;;21.49;64.97;100553.82;;;;-52
2020/07/16 09:57:41;;;;;;;3.23;2.83;;;;;;;21.51;64.76;100558.14;;;;-57
2020/07/16 10:00:41;;;;;;;6.07;2.75;;;;;;;21.51;64.83;100561.33;;;;-62
2020/07/16 10:03:41;;;;;;;4.88;2.50;;;;;;;21.51;64.64;100565.33;;;;-61
2020/07/16 10:06:41;;;;;;;4.79;2.71;;;;;;;21.50;64.75;100565.99;;;;-62
2020/07/16 10:09:41;;;;;;;5.03;2.66;;;;;;;21.49;64.76;100572.25;;;;-62
2020/07/16 10:12:41;;;;;;;4.87;2.77;;;;;;;21.49;64.70;100567.20;;;;-62
2020/07/16 10:15:41;;;;;;;3.39;2.52;;;;;;;21.48;64.57;100572.02;;;;-63
2020/07/16 10:18:41;;;;;;;4.57;2.67;;;;;;;21.47;64.55;100567.52;;;;-62
2020/07/16 10:21:41;;;;;;;3.60;2.57;;;;;;;21.47;64.52;100568.83;;;;-62
2020/07/16 10:24:41;;;;;;;3.83;2.63;;;;;;;21.47;64.50;100571.59;;;;-62
2020/07/16 10:27:41;;;;;;;3.39;2.47;;;;;;;21.47;64.44;100571.04;;;;-61
2020/07/16 10:30:41;;;;;;;3.95;2.83;;;;;;;21.48;64.39;100573.91;;;;-62
2020/07/16 10:33:41;;;;;;;4.53;2.83;;;;;;;21.47;64.39;100573.97;;;;-61
2020/07/16 10:36:41;;;;;;;4.17;2.77;;;;;;;21.46;64.32;100570.31;;;;-62
2020/07/16 10:39:41;;;;;;;3.55;2.61;;;;;;;21.46;64.34;100572.59;;;;-62
2020/07/16 10:42:41;;;;;;;2.79;2.57;;;;;;;21.46;64.31;100573.48;;;;-62
2020/07/16 10:45:41;;;;;;;4.45;2.71;;;;;;;21.46;64.28;100578.06;;;;-62
2020/07/16 10:48:41;;;;;;;2.65;2.42;;;;;;;21.46;64.21;100576.92;;;;-62
2020/07/16 10:51:44;;;;;;;4.02;2.54;;;;;;;21.46;64.22;100576.89;;;;-62
2020/07/16 10:54:41;;;;;;;4.53;2.55;;;;;;;21.46;64.23;100579.36;;;;-62
2020/07/16 10:57:41;;;;;;;4.41;2.61;;;;;;;21.45;64.24;100578.94;;;;-61
2020/07/16 11:07:07;;;;;;;3.26;2.34;;;;;;;21.44;64.19;100585.47;;;;-62
2020/07/16 11:10:07;;;;;;;3.95;2.51;;;;;;;21.45;64.19;100584.48;;;;-62
2020/07/16 11:13:07;;;;;;;2.73;2.53;;;;;;;21.44;64.13;100585.80;;;;-52
2020/07/16 11:16:07;;;;;;;3.13;2.64;;;;;;;21.47;64.15;100584.00;;;;-58
2020/07/16 11:19:07;;;;;;;2.83;2.40;;;;;;;21.48;64.27;100585.48;;;;-55
2020/07/16 11:22:07;;;;;;;12.71;2.95;;;;;;;21.48;64.34;100582.22;;;;-58
2020/07/16 11:25:07;;;;;;;5.11;2.55;;;;;;;21.51;64.51;100581.72;;;;-64
2020/07/16 11:28:07;;;;;;;8.62;2.57;;;;;;;21.53;64.85;100579.60;;;;-56
2020/07/16 11:31:07;;;;;;;8.15;2.88;;;;;;;21.55;64.76;100578.70;;;;-52
2020/07/16 11:34:07;;;;;;;8.73;2.76;;;;;;;21.56;65.09;100581.08;;;;-57
2020/07/16 11:37:07;;;;;;;6.83;2.49;;;;;;;21.57;64.96;100578.38;;;;-55
2020/07/16 11:40:07;;;;;;;6.50;2.77;;;;;;;21.59;64.91;100576.91;;;;-56
2020/07/16 11:43:07;;;;;;;4.89;2.37;;;;;;;21.59;64.69;100577.47;;;;-48
2020/07/16 11:46:07;;;;;;;7.35;2.55;;;;;;;21.60;64.78;100578.20;;;;-51
2020/07/16 11:49:07;;;;;;;5.25;2.77;;;;;;;21.60;64.74;100578.61;;;;-49
2020/07/16 11:52:07;;;;;;;7.77;2.60;;;;;;;21.59;64.69;100577.80;;;;-51
2020/07/16 11:55:07;;;;;;;6.54;2.55;;;;;;;21.58;64.61;100575.45;;;;-51
2020/07/16 11:58:07;;;;;;;5.61;2.61;;;;;;;21.59;64.51;100576.42;;;;-52
2020/07/16 12:01:07;;;;;;;3.83;2.39;;;;;;;21.59;64.45;100576.90;;;;-51
2020/07/16 12:04:07;;;;;;;4.76;2.37;;;;;;;21.59;64.34;100572.58;;;;-51
2020/07/16 12:07:07;;;;;;;4.29;2.31;;;;;;;21.60;64.27;100569.66;;;;-52
2020/07/16 12:10:07;;;;;;;3.39;2.31;;;;;;;21.59;64.28;100566.14;;;;-51
2020/07/16 12:13:07;;;;;;;4.41;2.20;;;;;;;21.59;64.27;100564.84;;;;-51
2020/07/16 12:16:07;;;;;;;2.89;2.15;;;;;;;21.60;64.11;100566.45;;;;-49
2020/07/16 12:19:07;;;;;;;3.09;2.23;;;;;;;21.58;64.22;100569.25;;;;-50
2020/07/16 12:22:07;;;;;;;2.69;2.10;;;;;;;21.58;64.13;100569.25;;;;-49
2020/07/16 12:25:07;;;;;;;3.25;2.03;;;;;;;21.59;64.03;100568.58;;;;-49
2020/07/16 12:28:07;;;;;;;2.70;2.19;;;;;;;21.58;64.02;100565.58;;;;-49
2020/07/16 12:31:07;;;;;;;5.57;2.25;;;;;;;21.57;64.02;100568.42;;;;-52
2020/07/16 12:34:07;;;;;;;4.78;2.30;;;;;;;21.59;64.01;100570.14;;;;-51
2020/07/16 12:37:07;;;;;;;3.01;2.16;;;;;;;21.59;64.08;100573.08;;;;-52
2020/07/16 12:43:07;;;;;;;2.62;1.93;;;;;;;21.58;64.06;100573.73;;;;-52
2020/07/16 12:48:07;;;;;;;6.59;2.21;;;;;;;21.56;64.12;100574.95;;;;-47
2020/07/16 12:54:07;;;;;;;4.27;2.29;;;;;;;21.60;64.14;100578.77;;;;-48
2020/07/16 12:57:07;;;;;;;3.30;2.17;;;;;;;21.60;64.28;100571.94;;;;-55
2020/07/16 13:00:20;;;;;;;4.02;2.27;;;;;;;21.61;64.29;100575.61;;;;-52
2020/07/16 13:04:07;;;;;;;3.21;2.34;;;;;;;21.62;64.29;100576.24;;;;-51
2020/07/16 13:07:07;;;;;;;2.93;2.10;;;;;;;21.62;64.31;100575.43;;;;-54
2020/07/16 13:12:07;;;;;;;2.57;2.09;;;;;;;21.64;64.40;100576.56;;;;-55
2020/07/16 13:21:34;;;;;;;2.95;2.09;;;;;;;21.60;64.46;100572.33;;;;-54
2020/07/16 13:24:34;;;;;;;4.39;2.12;;;;;;;21.59;64.39;100573.23;;;;-54
2020/07/16 13:29:33;;;;;;;2.97;2.09;;;;;;;21.59;64.34;100572.66;;;;-54
2020/07/16 13:33:33;;;;;;;2.91;1.92;;;;;;;21.58;64.29;100571.70;;;;-54
2020/07/16 13:37:33;;;;;;;4.27;2.13;;;;;;;21.57;64.32;100571.44;;;;-55
2020/07/16 13:43:33;;;;;;;2.73;2.07;;;;;;;21.57;64.29;100577.16;;;;-54
2020/07/16 13:48:33;;;;;;;2.85;2.17;;;;;;;21.56;64.19;100572.81;;;;-55
2020/07/16 13:52:33;;;;;;;3.10;2.13;;;;;;;21.55;64.19;100571.12;;;;-55
2020/07/16 13:57:33;;;;;;;2.66;2.17;;;;;;;21.55;64.10;100567.69;;;;-54
2020/07/16 14:00:33;;;;;;;2.79;2.07;;;;;;;21.55;64.04;100571.53;;;;-55
2020/07/16 14:03:33;;;;;;;4.81;2.21;;;;;;;21.54;64.04;100571.30;;;;-55
2020/07/16 14:06:33;;;;;;;2.30;2.04;;;;;;;21.54;64.04;100573.23;;;;-54
2020/07/16 14:09:33;;;;;;;2.55;1.95;;;;;;;21.55;63.99;100575.11;;;;-55
2020/07/16 14:12:33;;;;;;;2.89;1.99;;;;;;;21.56;63.96;100578.47;;;;-55
2020/07/16 14:15:33;;;;;;;3.59;2.10;;;;;;;21.55;63.95;100573.64;;;;-54
2020/07/16 14:18:33;;;;;;;3.12;2.05;;;;;;;21.55;63.96;100570.63;;;;-55
2020/07/16 14:21:33;;;;;;;4.58;2.09;;;;;;;21.55;63.96;100571.03;;;;-53
2020/07/16 14:24:33;;;;;;;2.59;2.09;;;;;;;21.58;63.95;100571.19;;;;-51
2020/07/16 14:27:33;;;;;;;3.00;1.91;;;;;;;21.59;64.05;100570.63;;;;-52
2020/07/16 14:30:33;;;;;;;3.19;2.10;;;;;;;21.60;64.01;100570.20;;;;-51
2020/07/16 14:33:33;;;;;;;2.19;1.99;;;;;;;21.61;64.13;100570.78;;;;-54
2020/07/16 14:36:33;;;;;;;2.45;2.18;;;;;;;21.62;64.05;100568.25;;;;-48
2020/07/16 14:39:33;;;;;;;2.57;2.06;;;;;;;21.63;64.09;100568.11;;;;-55
2020/07/16 14:42:33;;;;;;;7.87;2.43;;;;;;;21.64;64.01;100568.24;;;;-58
2020/07/16 14:45:33;;;;;;;4.38;2.23;;;;;;;21.65;64.26;100565.81;;;;-52
2020/07/16 14:48:33;;;;;;;5.51;2.13;;;;;;;21.64;64.16;100561.23;;;;-52
2020/07/16 14:51:33;;;;;;;6.80;2.27;;;;;;;21.66;64.28;100557.23;;;;-53
2020/07/16 14:54:33;;;;;;;4.67;2.07;;;;;;;21.68;64.33;100557.80;;;;-52
2020/07/16 14:57:33;;;;;;;6.23;2.31;;;;;;;21.69;64.33;100558.05;;;;-50
2020/07/16 15:00:33;;;;;;;7.57;2.29;;;;;;;21.72;64.47;100561.71;;;;-53
2020/07/16 15:03:33;;;;;;;7.99;2.24;;;;;;;21.73;64.46;100560.32;;;;-51
2020/07/16 15:06:33;;;;;;;8.18;2.61;;;;;;;21.74;64.65;100563.66;;;;-50
2020/07/16 15:09:33;;;;;;;19.45;2.77;;;;;;;21.75;64.58;100566.70;;;;-55
2020/07/16 15:12:33;;;;;;;9.70;2.65;;;;;;;21.78;64.61;100569.87;;;;-50
2020/07/16 15:15:35;;;;;;;6.12;2.23;;;;;;;21.78;64.64;100566.36;;;;-51
2020/07/16 15:18:34;;;;;;;8.23;2.65;;;;;;;21.80;64.56;100564.64;;;;-51
2020/07/16 15:21:33;;;;;;;10.36;2.65;;;;;;;21.80;64.45;100566.43;;;;-56
2020/07/16 15:24:33;;;;;;;7.40;2.69;;;;;;;21.83;64.54;100561.70;;;;-52
2020/07/16 15:27:34;;;;;;;6.75;2.35;;;;;;;21.83;64.60;100567.81;;;;-56
2020/07/16 15:30:33;;;;;;;14.05;2.66;;;;;;;21.84;64.63;100566.19;;;;-50
2020/07/16 15:33:33;;;;;;;14.32;2.83;;;;;;;21.85;64.81;100570.58;;;;-46
2020/07/16 15:36:33;;;;;;;4.55;2.62;;;;;;;21.84;64.65;100568.63;;;;-62
2020/07/16 15:39:34;;;;;;;7.66;2.55;;;;;;;21.86;64.63;100569.78;;;;-57
2020/07/16 15:42:33;;;;;;;6.93;2.34;;;;;;;21.87;64.70;100563.39;;;;-57
2020/07/16 15:45:33;;;;;;;4.09;2.27;;;;;;;21.86;64.43;100562.27;;;;-49
2020/07/16 15:48:33;;;;;;;8.47;2.53;;;;;;;21.87;64.50;100565.95;;;;-49
2020/07/16 15:51:33;;;;;;;8.55;2.55;;;;;;;21.86;64.71;100566.67;;;;-57
2020/07/16 15:54:33;;;;;;;8.10;2.53;;;;;;;21.87;64.53;100570.20;;;;-51
2020/07/16 15:57:33;;;;;;;9.20;2.67;;;;;;;21.87;64.57;100567.59;;;;-56
2020/07/16 16:00:33;;;;;;;10.39;2.69;;;;;;;21.87;64.41;100567.50;;;;-53
2020/07/16 16:03:33;;;;;;;6.53;2.67;;;;;;;21.89;64.38;100569.19;;;;-52
2020/07/16 16:06:33;;;;;;;11.36;3.02;;;;;;;21.89;64.53;100571.73;;;;-54
2020/07/16 16:09:33;;;;;;;11.10;2.67;;;;;;;21.90;64.48;100573.20;;;;-55
2020/07/16 16:12:33;;;;;;;9.16;2.42;;;;;;;21.91;64.30;100568.03;;;;-56
2020/07/16 16:15:33;;;;;;;7.37;2.59;;;;;;;21.92;64.35;100568.38;;;;-53
2020/07/16 16:18:33;;;;;;;9.17;2.65;;;;;;;21.92;64.46;100574.34;;;;-49
2020/07/16 16:21:33;;;;;;;12.95;2.81;;;;;;;21.92;64.34;100578.99;;;;-52
2020/07/16 16:24:33;;;;;;;7.61;2.59;;;;;;;21.92;64.40;100582.00;;;;-54
2020/07/16 16:27:33;;;;;;;8.73;2.57;;;;;;;21.93;64.42;100580.52;;;;-51
2020/07/16 16:30:33;;;;;;;7.03;2.89;;;;;;;21.93;64.30;100579.80;;;;-56
2020/07/16 16:33:33;;;;;;;7.49;2.81;;;;;;;21.92;64.33;100581.60;;;;-52
2020/07/16 16:36:33;;;;;;;6.51;2.53;;;;;;;21.92;64.13;100585.19;;;;-61
2020/07/16 16:39:33;;;;;;;5.53;2.71;;;;;;;21.92;64.27;100584.05;;;;-61
2020/07/16 16:42:33;;;;;;;4.93;2.65;;;;;;;21.91;64.26;100586.65;;;;-61
2020/07/16 16:45:33;;;;;;;9.90;2.67;;;;;;;21.90;64.15;100583.80;;;;-51
2020/07/16 16:55:00;;;;;;;7.80;2.86;;;;;;;21.90;64.14;100580.14;;;;-51
2020/07/16 16:58:00;;;;;;;6.99;2.87;;;;;;;21.88;63.96;100580.86;;;;-65
2020/07/16 17:03:59;;;;;;;6.45;2.82;;;;;;;21.88;64.05;100574.02;;;;-54
2020/07/16 17:07:00;;;;;;;8.11;2.86;;;;;;;21.87;63.96;100579.17;;;;-52
2020/07/16 17:09:59;;;;;;;5.68;2.75;;;;;;;21.88;64.05;100575.97;;;;-49
2020/07/16 17:12:59;;;;;;;4.51;2.70;;;;;;;21.88;64.12;100580.13;;;;-51
2020/07/16 17:16:00;;;;;;;8.73;2.93;;;;;;;21.89;63.98;100578.10;;;;-52
2020/07/16 17:18:59;;;;;;;5.83;2.89;;;;;;;21.89;63.95;100581.18;;;;-55
2020/07/16 17:21:59;;;;;;;7.41;2.78;;;;;;;21.89;64.21;100582.23;;;;-56
2020/07/16 17:24:59;;;;;;;10.62;2.79;;;;;;;21.89;64.00;100585.28;;;;-58
2020/07/16 17:28:00;;;;;;;10.03;2.79;;;;;;;21.90;64.15;100587.48;;;;-55
2020/07/16 17:30:59;;;;;;;6.21;3.01;;;;;;;21.89;64.07;100587.30;;;;-60
2020/07/16 17:34:00;;;;;;;9.47;3.11;;;;;;;21.90;64.06;100585.52;;;;-55
2020/07/16 17:36:59;;;;;;;5.85;2.88;;;;;;;21.89;64.15;100584.79;;;;-48
2020/07/16 17:39:59;;;;;;;8.41;2.99;;;;;;;21.90;64.00;100581.12;;;;-49
2020/07/16 17:43:00;;;;;;;4.40;2.82;;;;;;;21.88;64.07;100577.92;;;;-49
2020/07/16 17:45:59;;;;;;;7.75;2.91;;;;;;;21.86;64.17;100578.09;;;;-48
2020/07/16 17:48:59;;;;;;;5.21;2.91;;;;;;;21.85;64.05;100579.98;;;;-48
2020/07/16 17:51:59;;;;;;;5.71;2.73;;;;;;;21.85;63.92;100571.06;;;;-49
2020/07/16 17:55:00;;;;;;;5.00;2.71;;;;;;;21.85;63.92;100567.97;;;;-48
2020/07/16 17:57:59;;;;;;;7.47;2.75;;;;;;;21.84;63.85;100574.84;;;;-49
2020/07/16 18:00:59;;;;;;;3.75;2.65;;;;;;;21.83;63.87;100568.87;;;;-48
2020/07/16 18:03:59;;;;;;;6.31;2.91;;;;;;;21.81;63.89;100568.41;;;;-48
2020/07/16 18:07:00;;;;;;;6.99;2.60;;;;;;;21.80;64.00;100567.82;;;;-49
2020/07/16 18:09:59;;;;;;;3.34;2.69;;;;;;;21.79;63.91;100563.84;;;;-48
2020/07/16 18:12:59;;;;;;;6.25;2.90;;;;;;;21.79;63.83;100566.77;;;;-49
2020/07/16 18:15:59;;;;;;;5.45;2.75;;;;;;;21.79;63.83;100570.53;;;;-50
2020/07/16 18:18:59;;;;;;;6.61;3.05;;;;;;;21.79;63.78;100568.47;;;;-48
2020/07/16 18:22:01;;;;;;;3.87;2.59;;;;;;;21.78;63.79;100567.50;;;;-48
2020/07/16 18:24:59;;;;;;;5.41;2.74;;;;;;;21.77;63.67;100565.16;;;;-48
2020/07/16 18:28:00;;;;;;;3.07;2.59;;;;;;;21.77;63.78;100567.84;;;;-50
2020/07/16 18:30:59;;;;;;;3.66;2.37;;;;;;;21.77;63.67;100566.78;;;;-49
2020/07/16 18:33:59;;;;;;;4.49;2.46;;;;;;;21.76;63.78;100566.52;;;;-48
2020/07/16 18:36:59;;;;;;;2.98;2.43;;;;;;;21.75;63.77;100568.09;;;;-49
2020/07/16 18:39:59;;;;;;;3.75;2.65;;;;;;;21.75;63.67;100568.90;;;;-48
2020/07/16 18:42:59;;;;;;;2.98;2.37;;;;;;;21.75;63.64;100569.96;;;;-48
2020/07/16 18:45:59;;;;;;;4.18;2.55;;;;;;;21.76;63.60;100569.95;;;;-49
2020/07/16 18:49:00;;;;;;;3.38;2.41;;;;;;;21.75;63.61;100567.98;;;;-48
2020/07/16 18:51:59;;;;;;;3.73;2.58;;;;;;;21.74;63.64;100566.13;;;;-49